Terminal Aerodrome Forecast
Issued by NWS

Home | Current Version | Previous Version | Text Only | Print | Product List | Glossary On
Versions: 1 2 3 4 5 6 7 8 9 10 11 12 13 14 15 16 17
744
FTUS45 KRIW 261726
TAFCPR
TAF
KCPR 261726Z 2618/2718 09011KT P6SM BKN015
     FM261830 11007KT P6SM SCT050 BKN100
     FM262200 15012G20KT P6SM VCTS SCT060CB BKN080
     FM270200 11010KT P6SM VCSH BKN070
     FM270900 14005KT P6SM BKN080=

USA.gov is the U.S. government's official web portal to all federal, state and local government web resources and services.